Terminal Aerodrome Forecast
Issued by NWS Grand Forks, ND

Home | Current Version | Previous Version | Text Only | Print | Product List | Glossary Off
Versions: 1 2 3 4 5 6 7 8 9 10 11 12 13 14 15 16 17 18 19 20 21 22 23 24

000
FTUS43 KFGF 201700 AAA
TAFGFK
TAF AMD
KGFK 201729Z 2017/2118 VRB40KT 2SM SHRA BKN025
     FM201900 32015G25KT P6SM SKC
     FM210100 32008KT P6SM SKC
     FM211200 32008KT P6SM BKN025=

USA.gov is the U.S. government's official web portal to all federal, state and local government web resources and services.